createdAt,value
2023-03-13T17:18:40.278Z,16.63
2023-03-13T17:21:12.382Z,15.43
2023-03-13T17:23:38.980Z,17.60
2023-03-13T17:26:15.136Z,15.87
2023-03-13T17:28:42.657Z,15.17
2023-03-13T17:31:12.477Z,16.20
2023-03-13T17:33:40.718Z,15.07
2023-03-13T17:36:16.004Z,14.50
2023-03-13T17:38:43.051Z,13.67
2023-03-13T17:41:12.173Z,13.47
2023-03-13T17:43:39.557Z,13.40
2023-03-13T17:46:15.819Z,13.23
2023-03-13T17:48:42.505Z,12.50
2023-03-13T17:51:18.149Z,13.60
2023-03-13T17:53:44.878Z,13.10
2023-03-13T17:56:18.948Z,11.90
2023-03-13T17:58:46.860Z,12.47
2023-03-13T18:01:14.666Z,10.47
2023-03-13T18:03:42.265Z,10.70
2023-03-13T18:06:27.544Z,11.30
2023-03-13T18:08:56.590Z,9.93
2023-03-13T18:11:25.176Z,9.87
2023-03-13T18:13:52.578Z,10.27
2023-03-13T18:16:30.326Z,8.87
2023-03-13T18:18:57.283Z,8.93
2023-03-13T18:21:24.254Z,9.30
2023-03-13T18:23:52.063Z,9.43
2023-03-13T18:26:32.528Z,7.87
2023-03-13T18:29:00.700Z,7.80
2023-03-13T18:31:36.672Z,8.10
2023-03-13T18:34:04.749Z,7.53
2023-03-13T18:36:31.924Z,7.03
2023-03-13T18:38:59.068Z,7.30
2023-03-13T18:41:26.100Z,6.77
2023-03-13T18:43:52.672Z,7.03
2023-03-13T18:46:26.640Z,6.90
2023-03-13T18:48:54.056Z,6.77
2023-03-13T18:51:24.722Z,6.10
2023-03-13T18:53:52.617Z,5.83
2023-03-13T18:56:23.936Z,4.83
2023-03-13T18:58:52.268Z,6.27
2023-03-13T19:01:21.672Z,7.97
2023-03-13T19:03:48.965Z,16.93
2023-03-13T19:06:27.590Z,18.63
2023-03-13T19:08:59.436Z,17.37
2023-03-13T19:11:29.045Z,16.73
2023-03-13T19:13:56.505Z,16.87
2023-03-13T19:16:35.071Z,16.73
2023-03-13T19:19:02.354Z,16.70
2023-03-13T19:21:30.836Z,14.97
2023-03-13T19:23:57.796Z,14.53
2023-03-13T19:26:39.336Z,14.33
2023-03-13T19:29:15.665Z,13.33
2023-03-13T19:31:42.591Z,14.30
2023-03-13T19:34:09.728Z,13.97
2023-03-13T19:36:39.653Z,13.23
2023-03-13T19:39:14.022Z,13.30
2023-03-13T19:41:40.884Z,12.13
2023-03-13T19:44:07.751Z,11.77
2023-03-13T19:46:35.489Z,11.30
2023-03-13T19:49:02.282Z,9.97
2023-03-13T19:51:30.248Z,10.07
2023-03-13T19:53:57.299Z,9.40
2023-03-13T19:56:28.470Z,9.80
2023-03-13T19:59:06.349Z,8.67
2023-03-13T20:01:33.093Z,9.00
2023-03-13T20:03:59.697Z,8.37
2023-03-13T20:06:29.184Z,7.43
2023-03-13T20:08:57.696Z,7.50
2023-03-13T20:11:25.324Z,30.90
2023-03-13T20:13:52.154Z,36.37
2023-03-13T20:16:19.051Z,47.50
2023-03-13T20:18:48.517Z,47.97
2023-03-13T20:21:16.482Z,46.90
2023-03-13T20:23:48.545Z,46.90
2023-03-13T20:26:17.624Z,42.70
2023-03-13T20:28:48.532Z,41.77
2023-03-13T20:31:17.322Z,38.87
2023-03-13T20:33:44.006Z,38.10
2023-03-13T20:36:12.965Z,32.00
2023-03-13T20:38:41.029Z,30.80
2023-03-13T20:41:08.309Z,25.07
2023-03-13T20:43:36.831Z,22.10
2023-03-13T20:46:04.683Z,19.77
2023-03-13T20:48:31.266Z,17.63
2023-03-13T20:51:00.152Z,17.80
2023-03-13T20:53:27.506Z,17.60
2023-03-13T20:55:56.846Z,15.03
2023-03-13T20:58:24.010Z,15.53
2023-03-13T21:00:50.625Z,14.83
2023-03-13T21:03:18.744Z,14.50
2023-03-13T21:05:45.549Z,22.47
2023-03-13T21:08:12.316Z,24.13
2023-03-13T21:10:40.859Z,20.90
2023-03-13T21:13:09.181Z,20.30
2023-03-13T21:15:36.211Z,12.73
2023-03-13T21:18:04.117Z,13.47
2023-03-13T21:20:31.415Z,11.70
2023-03-13T21:22:58.012Z,11.20
2023-03-13T21:25:24.789Z,10.87
2023-03-13T21:27:51.365Z,10.67
2023-03-13T21:30:20.545Z,9.97
2023-03-13T21:32:48.468Z,10.93
2023-03-13T21:35:16.664Z,9.90
2023-03-13T21:37:43.919Z,9.07
2023-03-13T21:40:11.590Z,8.97
2023-03-13T21:42:38.251Z,8.40
2023-03-13T21:45:05.781Z,8.33
2023-03-13T21:47:36.657Z,6.87
2023-03-13T21:50:06.326Z,8.43
2023-03-13T21:52:38.038Z,25.87
2023-03-13T21:55:09.815Z,38.90
2023-03-13T21:57:36.400Z,34.97
2023-03-13T22:00:06.031Z,31.63
2023-03-13T22:02:32.594Z,29.53
2023-03-13T22:04:59.237Z,27.30
2023-03-13T22:07:25.844Z,27.43
2023-03-13T22:09:52.412Z,25.23
2023-03-13T22:12:19.108Z,24.77
2023-03-13T22:14:45.697Z,25.20
2023-03-13T22:17:19.226Z,22.97
2023-03-13T22:19:49.308Z,22.83
2023-03-13T22:22:17.092Z,21.73
2023-03-13T22:24:43.651Z,22.10
2023-03-13T22:27:10.343Z,21.70
2023-03-13T22:29:36.993Z,20.33
2023-03-13T22:32:04.352Z,17.80
2023-03-13T22:34:31.029Z,17.93
2023-03-13T22:36:57.573Z,17.23
2023-03-13T22:39:24.243Z,17.30
2023-03-13T22:41:50.905Z,17.00
2023-03-13T22:44:17.468Z,15.93
2023-03-13T22:46:44.044Z,9.90
2023-03-13T22:49:10.616Z,12.33
2023-03-13T22:51:37.198Z,11.53
2023-03-13T22:54:03.880Z,12.70
2023-03-13T22:56:30.457Z,11.03
